createdAt,value
2022-12-22T00:02:35.280Z,53.30
2022-12-22T00:05:23.505Z,47.93
2022-12-22T00:08:09.662Z,52.87
2022-12-22T00:10:55.609Z,45.97
2022-12-22T00:13:41.749Z,39.23
2022-12-22T00:16:27.972Z,39.70
2022-12-22T00:19:13.773Z,36.47
2022-12-22T00:21:59.603Z,35.07
2022-12-22T00:24:45.531Z,39.53
2022-12-22T00:27:46.115Z,38.30
2022-12-22T00:30:33.543Z,35.73
2022-12-22T00:33:22.181Z,43.77
2022-12-22T00:36:09.551Z,38.63
2022-12-22T00:38:55.434Z,36.13
2022-12-22T00:41:41.265Z,35.33
2022-12-22T00:44:27.455Z,37.00
2022-12-22T00:47:13.869Z,38.77
2022-12-22T00:50:03.996Z,37.50
2022-12-22T00:52:49.992Z,37.97
2022-12-22T00:55:41.668Z,39.33
2022-12-22T00:58:35.715Z,34.07
2022-12-22T01:01:21.818Z,32.97
2022-12-22T01:04:07.952Z,33.23
2022-12-22T01:06:55.412Z,31.07
2022-12-22T01:09:42.222Z,31.87
2022-12-22T01:12:40.344Z,26.57
2022-12-22T01:15:36.984Z,27.63
2022-12-22T01:18:24.164Z,37.77
2022-12-22T01:21:12.022Z,49.23
2022-12-22T01:23:59.586Z,59.37
2022-12-22T01:26:46.695Z,34.33
2022-12-22T01:29:33.093Z,44.50
2022-12-22T01:32:19.374Z,38.50
2022-12-22T01:35:05.332Z,41.27
2022-12-22T01:37:51.430Z,40.23
2022-12-22T01:40:42.546Z,34.47
2022-12-22T01:43:50.991Z,37.47
2022-12-22T01:47:02.607Z,29.20
2022-12-22T01:50:01.674Z,28.07
2022-12-22T01:52:55.867Z,23.87
2022-12-22T01:55:43.843Z,24.13
2022-12-22T01:58:42.576Z,22.13
2022-12-22T02:01:28.801Z,22.23
2022-12-22T02:04:15.397Z,24.63
2022-12-22T02:07:03.661Z,29.63
2022-12-22T02:10:25.803Z,29.70
2022-12-22T02:13:27.882Z,31.33
2022-12-22T02:16:36.023Z,36.20
2022-12-22T02:19:32.877Z,35.30
2022-12-22T02:22:49.103Z,33.20
2022-12-22T02:25:55.295Z,33.83
2022-12-22T02:28:42.992Z,30.07
2022-12-22T02:31:29.386Z,27.33
2022-12-22T02:34:15.650Z,33.63
2022-12-22T02:37:21.372Z,31.47
2022-12-22T02:40:42.410Z,31.87
2022-12-22T02:44:01.200Z,30.47
2022-12-22T02:47:46.131Z,28.43
2022-12-22T02:50:55.081Z,26.37
2022-12-22T02:53:42.359Z,22.10
2022-12-22T02:56:30.094Z,22.93
2022-12-22T02:59:16.130Z,23.37
2022-12-22T03:02:05.568Z,26.53
2022-12-22T03:04:51.570Z,25.93
2022-12-22T03:07:37.601Z,22.97
2022-12-22T03:10:24.309Z,25.73
2022-12-22T03:13:10.460Z,23.67
2022-12-22T03:15:56.405Z,27.47
2022-12-22T03:18:42.378Z,23.80
2022-12-22T03:21:28.536Z,22.20
2022-12-22T03:24:14.088Z,20.77
2022-12-22T03:26:41.510Z,19.43
2022-12-22T03:29:09.011Z,22.83
2022-12-22T03:31:36.609Z,17.33
2022-12-22T03:34:04.045Z,19.83
2022-12-22T03:36:31.748Z,19.43
2022-12-22T03:38:59.183Z,20.73
2022-12-22T03:41:45.468Z,19.03
2022-12-22T03:44:31.251Z,18.20
2022-12-22T03:46:58.968Z,20.17
2022-12-22T03:49:26.477Z,22.00
2022-12-22T03:51:54.711Z,23.73
2022-12-22T03:54:25.535Z,20.93
2022-12-22T03:56:54.018Z,19.83
2022-12-22T03:59:21.850Z,21.40
2022-12-22T04:01:55.238Z,18.10
2022-12-22T04:04:25.850Z,18.67
2022-12-22T04:06:54.318Z,17.50
2022-12-22T04:09:22.839Z,22.27
2022-12-22T04:12:08.945Z,23.40
2022-12-22T04:14:36.842Z,19.47
2022-12-22T04:17:06.049Z,18.83
2022-12-22T04:19:33.992Z,16.70
2022-12-22T04:22:01.949Z,14.97
2022-12-22T04:24:29.445Z,15.30
2022-12-22T04:26:56.961Z,17.17
2022-12-22T04:29:24.459Z,19.63
2022-12-22T04:31:51.920Z,19.87
2022-12-22T04:34:19.424Z,15.30
2022-12-22T04:36:46.898Z,14.57
2022-12-22T04:39:14.322Z,15.10
2022-12-22T04:41:41.770Z,14.17
2022-12-22T04:44:09.257Z,14.20
2022-12-22T04:46:36.736Z,15.43
2022-12-22T04:49:04.161Z,14.37
2022-12-22T04:51:31.650Z,12.60
2022-12-22T04:53:59.103Z,20.27
2022-12-22T04:56:26.548Z,37.67
2022-12-22T04:58:54.007Z,38.40
2022-12-22T05:01:21.769Z,27.03
2022-12-22T05:03:49.406Z,19.90
2022-12-22T05:06:16.906Z,19.33
2022-12-22T05:08:44.367Z,15.17
2022-12-22T05:11:12.026Z,14.33
2022-12-22T05:13:39.869Z,18.73
2022-12-22T05:16:14.557Z,19.87
2022-12-22T05:18:44.373Z,24.13
2022-12-22T05:21:22.996Z,21.70
2022-12-22T05:23:51.299Z,21.90
2022-12-22T05:26:19.982Z,25.70
2022-12-22T05:28:48.234Z,25.27
2022-12-22T05:31:23.767Z,26.10
2022-12-22T05:33:51.596Z,24.00
2022-12-22T05:36:19.597Z,22.50
2022-12-22T05:38:47.061Z,16.93
2022-12-22T05:41:14.988Z,14.30
2022-12-22T05:43:42.478Z,12.57
2022-12-22T05:46:11.862Z,9.83
2022-12-22T05:48:40.167Z,11.03
2022-12-22T05:51:09.690Z,10.57
2022-12-22T05:53:38.468Z,11.23
2022-12-22T05:56:08.112Z,10.83
2022-12-22T05:58:38.774Z,12.23
2022-12-22T06:01:06.866Z,15.23
2022-12-22T06:03:34.507Z,13.27
2022-12-22T06:06:02.212Z,13.83
2022-12-22T06:08:29.838Z,15.33
2022-12-22T06:10:58.778Z,13.03
2022-12-22T06:13:26.875Z,16.37
2022-12-22T06:15:54.634Z,14.83
2022-12-22T06:18:22.167Z,33.83
2022-12-22T06:20:52.677Z,41.10
2022-12-22T06:23:23.507Z,76.87
2022-12-22T06:26:01.770Z,92.87
2022-12-22T06:28:29.392Z,72.00
2022-12-22T06:30:56.958Z,66.90
2022-12-22T06:33:24.611Z,46.43
2022-12-22T06:35:58.098Z,20.90
2022-12-22T06:38:28.648Z,19.47
2022-12-22T06:40:56.592Z,17.03
2022-12-22T06:43:24.135Z,17.33
2022-12-22T06:45:51.697Z,16.87
2022-12-22T06:48:19.490Z,17.80
2022-12-22T06:50:46.986Z,19.23
2022-12-22T06:53:14.564Z,18.87
2022-12-22T06:55:42.050Z,19.23
2022-12-22T06:58:09.686Z,48.17
2022-12-22T07:00:37.201Z,53.87
2022-12-22T07:03:04.892Z,43.67
2022-12-22T07:05:32.655Z,40.57
2022-12-22T07:08:07.611Z,34.87
2022-12-22T07:10:54.488Z,31.97
2022-12-22T07:13:22.045Z,49.83
2022-12-22T07:15:57.656Z,50.13
2022-12-22T07:18:35.763Z,71.87
2022-12-22T07:21:06.354Z,115.13
2022-12-22T07:23:34.319Z,165.63
2022-12-22T07:26:02.079Z,131.80
2022-12-22T07:28:29.715Z,113.53
2022-12-22T07:30:57.288Z,112.33
2022-12-22T07:33:24.881Z,165.33
2022-12-22T07:36:13.225Z,91.57
2022-12-22T07:38:43.922Z,99.07
2022-12-22T07:41:32.487Z,75.50
2022-12-22T07:44:01.744Z,66.73
2022-12-22T07:46:33.533Z,46.67
2022-12-22T07:49:19.699Z,37.07
2022-12-22T07:51:47.438Z,31.17
2022-12-22T07:54:16.537Z,30.47
2022-12-22T07:56:46.565Z,25.57
2022-12-22T07:59:15.031Z,27.37
2022-12-22T08:01:43.133Z,40.43
2022-12-22T08:04:12.245Z,49.30
2022-12-22T08:06:40.155Z,48.73
2022-12-22T08:09:09.432Z,31.50
2022-12-22T08:11:36.947Z,24.60
2022-12-22T08:14:04.382Z,21.10
2022-12-22T08:16:31.954Z,18.70
2022-12-22T08:18:59.492Z,17.97
2022-12-22T08:21:26.962Z,15.97
2022-12-22T08:23:54.529Z,13.80
2022-12-22T08:26:34.343Z,12.87
2022-12-22T08:29:07.804Z,11.70
2022-12-22T08:31:35.506Z,14.40
2022-12-22T08:34:07.052Z,18.43
2022-12-22T08:36:40.294Z,17.43
2022-12-22T08:39:08.269Z,16.00
2022-12-22T08:41:51.624Z,16.43
2022-12-22T08:44:30.758Z,14.80
2022-12-22T08:46:59.987Z,12.47
2022-12-22T08:49:28.146Z,12.50
2022-12-22T08:51:55.652Z,13.03
2022-12-22T08:54:23.733Z,13.07
2022-12-22T08:56:51.590Z,11.03
2022-12-22T08:59:19.284Z,13.10
2022-12-22T09:01:51.024Z,14.57
2022-12-22T09:04:21.642Z,13.60
2022-12-22T09:06:51.872Z,15.57
2022-12-22T09:09:20.614Z,15.80
2022-12-22T09:11:48.053Z,14.37
2022-12-22T09:14:15.679Z,13.27
2022-12-22T09:16:43.388Z,14.83
2022-12-22T09:19:11.141Z,13.80
2022-12-22T09:21:38.652Z,14.87
2022-12-22T09:24:07.826Z,15.30
2022-12-22T09:26:36.170Z,13.67
2022-12-22T09:29:04.786Z,14.37
2022-12-22T09:31:32.701Z,16.70
2022-12-22T09:34:00.781Z,14.60
2022-12-22T09:36:31.779Z,13.93
2022-12-22T09:38:59.445Z,16.03
2022-12-22T09:41:51.482Z,15.93
2022-12-22T09:44:32.298Z,15.37
2022-12-22T09:47:26.964Z,15.77
2022-12-22T09:49:56.859Z,15.20
2022-12-22T09:52:33.823Z,15.00
2022-12-22T09:55:27.040Z,13.23
2022-12-22T09:57:55.224Z,15.87
2022-12-22T10:00:27.187Z,15.53
2022-12-22T10:03:25.380Z,15.30
2022-12-22T10:06:21.796Z,15.37
2022-12-22T10:08:49.283Z,17.30
2022-12-22T10:11:19.160Z,15.73
2022-12-22T10:13:46.749Z,15.70
2022-12-22T10:16:27.973Z,16.27
2022-12-22T10:19:12.155Z,15.17
2022-12-22T10:21:46.367Z,15.77
2022-12-22T10:24:30.238Z,14.50
2022-12-22T10:26:59.679Z,15.57
2022-12-22T10:29:27.705Z,14.90
2022-12-22T10:32:03.563Z,14.43
2022-12-22T10:34:31.251Z,15.13
2022-12-22T10:37:03.043Z,16.20
2022-12-22T10:39:40.917Z,15.47
2022-12-22T10:42:16.284Z,16.27
2022-12-22T10:44:49.551Z,13.10
2022-12-22T10:47:22.227Z,12.27
2022-12-22T10:52:29.958Z,14.30
2022-12-22T10:55:23.609Z,13.07
2022-12-22T10:57:51.980Z,13.90
2022-12-22T11:00:31.272Z,15.30
2022-12-22T11:03:02.079Z,12.73
2022-12-22T11:05:32.047Z,12.07
2022-12-22T11:08:18.958Z,9.80
2022-12-22T11:11:14.864Z,10.27
2022-12-22T11:13:53.422Z,10.13
2022-12-22T11:16:39.529Z,10.90
2022-12-22T11:19:39.339Z,11.17
2022-12-22T11:22:30.678Z,10.50
2022-12-22T11:25:27.797Z,9.97
2022-12-22T11:28:19.765Z,13.83
2022-12-22T11:31:31.180Z,20.50
2022-12-22T11:34:26.511Z,15.23
2022-12-22T11:37:05.259Z,9.87
2022-12-22T11:39:59.163Z,8.30
2022-12-22T11:42:59.900Z,8.33
2022-12-22T11:45:54.715Z,8.00
2022-12-22T11:48:50.937Z,7.43
2022-12-22T11:51:31.643Z,7.67
2022-12-22T11:54:25.663Z,7.43
2022-12-22T11:57:11.054Z,8.07
2022-12-22T12:00:02.896Z,7.90
2022-12-22T12:02:57.727Z,8.50
2022-12-22T12:05:45.073Z,7.57
2022-12-22T12:08:58.901Z,8.67
2022-12-22T12:12:10.851Z,7.23
2022-12-22T12:14:43.822Z,7.73
2022-12-22T12:17:55.288Z,6.87
2022-12-22T12:21:01.608Z,6.80
2022-12-22T12:23:37.863Z,8.50
2022-12-22T12:26:18.419Z,7.00
2022-12-22T12:29:16.435Z,11.23
2022-12-22T12:32:07.589Z,13.30
2022-12-22T12:34:42.315Z,17.43
2022-12-22T12:37:27.967Z,16.33
2022-12-22T12:40:07.219Z,14.63
2022-12-22T12:42:41.773Z,15.03
2022-12-22T12:45:38.395Z,15.13
2022-12-22T12:48:26.473Z,14.30
2022-12-22T12:50:56.375Z,15.40
2022-12-22T12:53:27.956Z,13.87
2022-12-22T12:56:01.454Z,22.10
2022-12-22T12:58:37.970Z,22.57
2022-12-22T13:01:26.999Z,18.40
2022-12-22T13:04:04.128Z,21.60
2022-12-22T13:06:49.761Z,19.97
2022-12-22T13:12:49.891Z,28.00
2022-12-22T13:15:40.892Z,27.67
2022-12-22T13:18:26.742Z,24.27
2022-12-22T13:21:18.821Z,17.73
2022-12-22T13:24:22.906Z,17.00
2022-12-22T13:26:45.021Z,14.00
2022-12-22T13:29:26.534Z,18.03
2022-12-22T13:32:02.819Z,20.73
2022-12-22T13:35:28.500Z,17.50
2022-12-22T13:37:43.721Z,13.37
2022-12-22T13:48:35.979Z,9.80
2022-12-22T13:51:26.598Z,10.70
2022-12-22T13:54:17.137Z,9.63
2022-12-22T13:56:54.647Z,8.60
2022-12-22T13:59:56.342Z,8.53
2022-12-22T14:02:23.967Z,8.57
2022-12-22T14:05:15.330Z,10.17
2022-12-22T14:08:06.813Z,9.67
2022-12-22T14:10:42.837Z,11.00
2022-12-22T14:13:19.071Z,10.77
2022-12-22T14:15:47.458Z,11.03
2022-12-22T14:18:21.881Z,11.00
2022-12-22T14:20:50.135Z,13.40
2022-12-22T14:23:44.268Z,15.47
2022-12-22T14:26:20.482Z,16.67
2022-12-22T14:28:53.775Z,13.17
2022-12-22T14:31:21.487Z,13.77
2022-12-22T14:34:05.375Z,13.17
2022-12-22T14:36:46.197Z,11.07
2022-12-22T14:39:27.012Z,12.00
2022-12-22T14:42:05.474Z,11.93
2022-12-22T14:44:44.822Z,9.53
2022-12-22T14:47:12.364Z,8.83
2022-12-22T14:49:54.849Z,8.77
2022-12-22T14:52:51.363Z,8.00
2022-12-22T14:55:35.500Z,11.33
2022-12-22T14:58:29.624Z,10.80
2022-12-22T15:01:23.234Z,9.67
2022-12-22T15:04:17.033Z,10.00
2022-12-22T15:06:48.909Z,11.80
2022-12-22T15:09:16.309Z,12.37
2022-12-22T15:11:49.446Z,10.33
2022-12-22T15:14:24.006Z,11.97
2022-12-22T15:16:56.213Z,10.73
2022-12-22T15:19:24.259Z,10.60
2022-12-22T15:21:52.349Z,8.23
2022-12-22T15:24:19.941Z,9.03
2022-12-22T15:26:47.851Z,8.33
2022-12-22T15:29:15.455Z,12.30
2022-12-22T15:31:44.149Z,23.93
2022-12-22T15:34:26.869Z,18.03
2022-12-22T15:36:54.798Z,23.97
2022-12-22T15:39:23.541Z,16.03
2022-12-22T15:41:51.017Z,14.10
2022-12-22T15:44:18.678Z,13.53
2022-12-22T15:46:55.909Z,15.50
2022-12-22T15:49:27.343Z,20.60
2022-12-22T15:52:02.291Z,17.43
2022-12-22T15:54:33.282Z,13.10
2022-12-22T15:57:01.640Z,14.47
2022-12-22T15:59:30.047Z,16.37
2022-12-22T16:02:01.282Z,13.60
2022-12-22T16:04:30.148Z,16.00
2022-12-22T16:06:59.789Z,17.47
2022-12-22T16:09:38.251Z,16.17
2022-12-22T16:12:32.498Z,16.53
2022-12-22T16:15:02.079Z,19.13
2022-12-22T16:17:29.878Z,19.17
2022-12-22T16:19:57.396Z,15.80
2022-12-22T16:22:33.333Z,14.73
2022-12-22T16:25:04.094Z,17.30
2022-12-22T16:27:31.883Z,14.47
2022-12-22T16:29:59.608Z,10.33
2022-12-22T16:32:30.486Z,8.40
2022-12-22T16:35:10.658Z,7.23
2022-12-22T16:37:38.858Z,8.97
2022-12-22T16:40:08.055Z,12.67
2022-12-22T16:45:24.935Z,11.70
2022-12-22T16:47:53.985Z,11.43
2022-12-22T16:50:33.139Z,12.27
2022-12-22T16:53:05.555Z,14.90
2022-12-22T16:55:34.120Z,13.83
2022-12-22T16:58:01.747Z,14.30
2022-12-22T17:00:33.199Z,13.07
2022-12-22T17:03:13.430Z,13.60
2022-12-22T17:05:44.954Z,12.83
2022-12-22T17:08:28.071Z,11.03
2022-12-22T17:11:02.126Z,11.67
2022-12-22T17:13:33.803Z,14.47
2022-12-22T17:16:02.002Z,16.83
2022-12-22T17:18:31.864Z,20.13
2022-12-22T17:21:00.970Z,16.70
2022-12-22T17:23:43.374Z,16.07
2022-12-22T17:26:15.095Z,14.17
2022-12-22T17:28:43.761Z,11.03
2022-12-22T17:31:20.787Z,9.90
2022-12-22T17:33:48.919Z,8.07
2022-12-22T17:36:39.824Z,9.00
2022-12-22T17:39:21.933Z,9.00
2022-12-22T17:41:56.176Z,10.23
2022-12-22T17:44:27.098Z,9.90
2022-12-22T17:46:54.730Z,11.37
2022-12-22T17:49:22.934Z,11.97
2022-12-22T17:51:50.722Z,15.87
2022-12-22T17:54:28.240Z,16.80
2022-12-22T17:57:02.179Z,14.60
2022-12-22T17:59:30.946Z,24.03
2022-12-22T18:01:59.205Z,22.63
2022-12-22T18:04:28.083Z,21.63
2022-12-22T18:06:56.198Z,20.23
2022-12-22T18:09:26.269Z,20.07
2022-12-22T18:11:54.273Z,19.37
2022-12-22T18:14:23.056Z,18.93
2022-12-22T18:16:50.676Z,22.53
2022-12-22T18:19:18.255Z,18.93
2022-12-22T18:21:45.840Z,17.07
2022-12-22T18:24:17.953Z,16.13
2022-12-22T18:26:47.202Z,19.10
2022-12-22T18:29:18.961Z,16.10
2022-12-22T18:31:46.760Z,12.30
2022-12-22T18:34:14.388Z,12.53
2022-12-22T18:36:44.223Z,8.90
2022-12-22T18:39:19.268Z,6.97
2022-12-22T18:41:46.875Z,7.83
2022-12-22T18:44:19.416Z,7.00
2022-12-22T18:46:47.657Z,6.90
2022-12-22T18:49:15.618Z,6.30
2022-12-22T18:51:44.753Z,7.67
2022-12-22T18:54:32.681Z,8.10
2022-12-22T18:57:00.241Z,7.80
2022-12-22T18:59:28.902Z,6.73
2022-12-22T19:02:36.258Z,7.50
2022-12-22T19:05:13.411Z,8.90
2022-12-22T19:07:40.895Z,8.60
2022-12-22T19:10:20.441Z,9.13
2022-12-22T19:12:52.607Z,7.70
2022-12-22T19:15:39.440Z,8.20
2022-12-22T19:18:07.534Z,8.97
2022-12-22T19:20:35.078Z,7.50
2022-12-22T19:23:02.547Z,9.07
2022-12-22T19:25:32.319Z,9.57
2022-12-22T19:28:35.181Z,10.00
2022-12-22T19:31:06.211Z,14.07
2022-12-22T19:33:43.397Z,13.17
2022-12-22T19:36:22.260Z,14.53
2022-12-22T19:38:51.137Z,14.07
2022-12-22T19:41:48.594Z,10.70
2022-12-22T19:44:24.644Z,10.43
2022-12-22T19:46:53.564Z,7.93
2022-12-22T19:49:24.975Z,7.40
2022-12-22T19:51:52.471Z,6.47
2022-12-22T19:54:19.996Z,5.33
2022-12-22T19:56:52.049Z,5.73
2022-12-22T19:59:52.814Z,7.50
2022-12-22T20:02:33.354Z,5.70
2022-12-22T20:05:01.083Z,4.47
2022-12-22T20:07:30.708Z,5.07
2022-12-22T20:09:58.140Z,6.13
2022-12-22T20:12:30.085Z,4.03
2022-12-22T20:14:57.913Z,4.93
2022-12-22T20:17:25.342Z,5.30
2022-12-22T20:19:52.795Z,4.33
2022-12-22T20:22:23.236Z,5.70
2022-12-22T20:24:51.671Z,4.73
2022-12-22T20:27:34.100Z,5.27
2022-12-22T20:30:01.674Z,6.00
2022-12-22T20:32:29.327Z,5.33
2022-12-22T20:34:57.246Z,6.33
2022-12-22T20:37:25.476Z,6.07
2022-12-22T20:39:52.964Z,7.43
2022-12-22T20:42:23.591Z,7.63
2022-12-22T20:45:02.618Z,6.57
2022-12-22T20:47:33.621Z,7.27
2022-12-22T20:50:01.400Z,7.63
2022-12-22T20:52:29.276Z,7.57
2022-12-22T20:54:56.762Z,9.03
2022-12-22T20:57:24.952Z,7.53
2022-12-22T20:59:56.489Z,7.60
2022-12-22T21:02:28.547Z,8.40
2022-12-22T21:04:57.012Z,8.13
2022-12-22T21:07:24.568Z,8.37
2022-12-22T21:09:51.927Z,9.60
2022-12-22T21:12:19.350Z,7.73
2022-12-22T21:14:46.766Z,6.97
2022-12-22T21:17:18.019Z,7.57
2022-12-22T21:19:46.225Z,7.13
2022-12-22T21:22:14.621Z,7.73
2022-12-22T21:24:42.118Z,6.67
2022-12-22T21:27:20.270Z,7.77
2022-12-22T21:29:47.998Z,7.03
2022-12-22T21:32:15.982Z,6.90
2022-12-22T21:34:43.415Z,7.73
2022-12-22T21:37:18.449Z,7.07
2022-12-22T21:39:46.103Z,6.73
2022-12-22T21:42:18.673Z,10.73
2022-12-22T21:44:46.642Z,6.83
2022-12-22T21:47:18.065Z,6.93
2022-12-22T21:49:45.494Z,7.03
2022-12-22T21:52:13.046Z,6.50
2022-12-22T21:54:40.553Z,6.13
2022-12-22T21:57:16.272Z,6.70
2022-12-22T21:59:43.742Z,6.30
2022-12-22T22:02:18.641Z,5.73
2022-12-22T22:04:52.152Z,10.73
2022-12-22T22:07:21.815Z,7.57
2022-12-22T22:09:49.263Z,6.90
2022-12-22T22:12:37.468Z,7.90
2022-12-22T22:15:07.285Z,15.60
2022-12-22T22:17:34.769Z,9.57
2022-12-22T22:20:02.326Z,7.93
2022-12-22T22:22:29.761Z,7.33
2022-12-22T22:24:57.220Z,5.70
2022-12-22T22:27:24.621Z,6.10
2022-12-22T22:29:52.089Z,5.83
2022-12-22T22:32:19.618Z,5.30
2022-12-22T22:34:47.050Z,5.33
2022-12-22T22:37:14.484Z,5.80
2022-12-22T22:39:41.873Z,5.53
2022-12-22T22:42:09.342Z,7.73
2022-12-22T22:44:36.741Z,6.23
2022-12-22T22:47:04.332Z,7.43
2022-12-22T22:49:31.924Z,7.00
2022-12-22T22:51:59.436Z,8.63
2022-12-22T22:54:26.879Z,7.97
2022-12-22T22:56:54.651Z,5.60
2022-12-22T22:59:22.131Z,6.93
2022-12-22T23:01:49.711Z,6.30
2022-12-22T23:04:17.365Z,5.93
2022-12-22T23:06:44.898Z,5.83
2022-12-22T23:09:12.501Z,6.70
2022-12-22T23:11:39.869Z,4.97
2022-12-22T23:14:07.393Z,6.80
2022-12-22T23:16:38.305Z,7.03
2022-12-22T23:19:06.700Z,5.83
2022-12-22T23:21:34.336Z,6.80
2022-12-22T23:24:01.955Z,5.90
2022-12-22T23:26:29.613Z,6.43
2022-12-22T23:29:02.922Z,6.63
2022-12-22T23:31:33.054Z,5.97
2022-12-22T23:34:01.060Z,7.13
2022-12-22T23:36:28.507Z,5.50
2022-12-22T23:38:56.382Z,6.63
2022-12-22T23:41:24.148Z,5.00
2022-12-22T23:43:52.890Z,5.60
2022-12-22T23:46:20.622Z,6.57
2022-12-22T23:48:57.394Z,6.80
2022-12-22T23:51:27.875Z,5.33
2022-12-22T23:53:59.006Z,5.37
2022-12-22T23:56:26.866Z,5.73
2022-12-22T23:58:55.361Z,5.17
